Aérodrome :







RETROUVEZ-NOUS SUR...

 
LOGIN :

S'inscrire | Disclaimer

   EN    FR    IT 

 









Légende :    VFR   VFR Marginal   IFR   IFR Intensif   IFR Très Intensif
Visi : 
Plafond : 
>= 8 km
>= 3000ft
5 à 8 km
1000 à 3000 ft
1500m à 5 km
500 à 1000 ft
800 à 1500m
200 à 500 ft
< 800m
< 200 ft
Symboles :   Orages  Brouillard  Fortes neiges  Fortes précipitations  Vent > 20 kt






- Altitude de l'aérodrome : 26 ft
- Code IATA : BLA


SVBC - Gen. Jose Antonio Anzoategui I

DERNIER METAR :
  • 270902Z AUTO NIL

METARs EXPIRÉS :
  • 270802Z AUTO NIL
  • 270702Z AUTO NIL

TAF TAF SVBC
Valide du 27 à 06h jusqu'au 28 à 06h UTC


270400Z 2706/2806 07004KT 9999 SCT016 TX33/18Z TN25/09Z
BECMG 2706/2710 09006KT 9000 -DZ SCT016 BKN030
FIR SVZM / Amérique du Sud



MET'MAP, la Météo Aéronautique d'un coup d'oeil ! - Copyright ORBIFLY Décembre 2007 - Disclaimer

ORBIFLY MET'MAP TEAM :

Programmation & Développement : Alexandra Zaïnal
Sur une idée originale de : Baudouin d'Aumeries
Assistance à la programmation : Marc-Olivier Méhu
Soutien technique & logistique : Manuel Goepfert

Contact : metmap@orbifly.com




SOURCES & CREDITS :

   NOAA